sensor_id;sensor_type;location;lat;lon;timestamp;P1;durP1;ratioP1;P2;durP2;ratioP2
61640;SDS011;62201;49.966;8.342;2023-03-21T00:00:14;9.93;;;3.70;;
61640;SDS011;62201;49.966;8.342;2023-03-21T00:02:40;7.68;;;3.45;;
61640;SDS011;62201;49.966;8.342;2023-03-21T00:05:06;7.22;;;3.33;;
61640;SDS011;62201;49.966;8.342;2023-03-21T00:07:31;10.38;;;3.97;;
61640;SDS011;62201;49.966;8.342;2023-03-21T00:09:57;7.65;;;3.75;;
61640;SDS011;62201;49.966;8.342;2023-03-21T00:12:22;7.82;;;4.00;;
61640;SDS011;62201;49.966;8.342;2023-03-21T00:14:47;10.30;;;4.03;;
61640;SDS011;62201;49.966;8.342;2023-03-21T00:17:13;7.82;;;3.38;;
61640;SDS011;62201;49.966;8.342;2023-03-21T00:19:39;8.45;;;3.60;;
61640;SDS011;62201;49.966;8.342;2023-03-21T00:22:05;6.55;;;3.60;;
61640;SDS011;62201;49.966;8.342;2023-03-21T00:24:31;7.35;;;3.55;;
61640;SDS011;62201;49.966;8.342;2023-03-21T00:26:56;10.50;;;3.72;;
61640;SDS011;62201;49.966;8.342;2023-03-21T00:29:22;10.63;;;3.92;;
61640;SDS011;62201;49.966;8.342;2023-03-21T00:31:47;7.32;;;3.33;;
61640;SDS011;62201;49.966;8.342;2023-03-21T00:34:12;8.55;;;3.53;;
61640;SDS011;62201;49.966;8.342;2023-03-21T00:36:38;9.48;;;3.95;;
61640;SDS011;62201;49.966;8.342;2023-03-21T00:39:03;9.32;;;3.95;;
61640;SDS011;62201;49.966;8.342;2023-03-21T00:41:30;8.70;;;3.90;;
61640;SDS011;62201;49.966;8.342;2023-03-21T00:43:55;9.48;;;3.90;;
61640;SDS011;62201;49.966;8.342;2023-03-21T00:46:21;11.43;;;3.77;;
61640;SDS011;62201;49.966;8.342;2023-03-21T00:48:47;7.40;;;4.00;;
61640;SDS011;62201;49.966;8.342;2023-03-21T00:51:19;7.68;;;3.65;;
61640;SDS011;62201;49.966;8.342;2023-03-21T00:53:50;11.50;;;4.10;;
61640;SDS011;62201;49.966;8.342;2023-03-21T00:56:17;11.32;;;4.03;;
61640;SDS011;62201;49.966;8.342;2023-03-21T00:58:42;10.40;;;3.92;;
61640;SDS011;62201;49.966;8.342;2023-03-21T01:01:08;11.18;;;4.50;;
61640;SDS011;62201;49.966;8.342;2023-03-21T01:03:33;10.15;;;4.32;;
61640;SDS011;62201;49.966;8.342;2023-03-21T01:06:06;10.53;;;4.27;;
61640;SDS011;62201;49.966;8.342;2023-03-21T01:08:38;8.43;;;4.00;;
61640;SDS011;62201;49.966;8.342;2023-03-21T01:11:07;11.43;;;4.28;;
61640;SDS011;62201;49.966;8.342;2023-03-21T01:13:35;12.60;;;4.73;;
61640;SDS011;62201;49.966;8.342;2023-03-21T01:16:00;11.80;;;4.60;;
61640;SDS011;62201;49.966;8.342;2023-03-21T01:18:29;9.50;;;4.20;;
61640;SDS011;62201;49.966;8.342;2023-03-21T01:20:55;13.23;;;4.60;;
61640;SDS011;62201;49.966;8.342;2023-03-21T01:23:22;9.43;;;4.57;;
61640;SDS011;62201;49.966;8.342;2023-03-21T01:25:49;11.98;;;4.68;;
61640;SDS011;62201;49.966;8.342;2023-03-21T01:28:16;12.10;;;4.77;;
61640;SDS011;62201;49.966;8.342;2023-03-21T01:30:45;10.47;;;4.93;;
61640;SDS011;62201;49.966;8.342;2023-03-21T01:33:12;13.63;;;4.73;;
61640;SDS011;62201;49.966;8.342;2023-03-21T01:35:39;13.07;;;5.10;;
61640;SDS011;62201;49.966;8.342;2023-03-21T01:38:04;7.47;;;4.80;;
61640;SDS011;62201;49.966;8.342;2023-03-21T01:40:30;13.77;;;5.20;;
61640;SDS011;62201;49.966;8.342;2023-03-21T01:42:55;13.57;;;5.20;;
61640;SDS011;62201;49.966;8.342;2023-03-21T01:48:24;12.52;;;5.50;;
61640;SDS011;62201;49.966;8.342;2023-03-21T01:50:52;11.67;;;5.47;;
61640;SDS011;62201;49.966;8.342;2023-03-21T01:53:18;10.33;;;5.77;;
61640;SDS011;62201;49.966;8.342;2023-03-21T01:55:46;12.00;;;5.80;;
61640;SDS011;62201;49.966;8.342;2023-03-21T01:58:14;9.73;;;5.63;;
61640;SDS011;62201;49.966;8.342;2023-03-21T02:00:42;14.40;;;5.90;;
61640;SDS011;62201;49.966;8.342;2023-03-21T02:03:08;11.27;;;6.13;;
61640;SDS011;62201;49.966;8.342;2023-03-21T02:08:19;11.03;;;6.30;;
61640;SDS011;62201;49.966;8.342;2023-03-21T02:10:46;12.67;;;5.40;;
61640;SDS011;62201;49.966;8.342;2023-03-21T02:13:13;11.60;;;6.47;;
61640;SDS011;62201;49.966;8.342;2023-03-21T02:15:40;12.07;;;5.73;;
61640;SDS011;62201;49.966;8.342;2023-03-21T02:18:23;12.60;;;5.68;;
61640;SDS011;62201;49.966;8.342;2023-03-21T02:24:02;15.07;;;5.97;;
61640;SDS011;62201;49.966;8.342;2023-03-21T02:34:44;13.00;;;7.63;;
61640;SDS011;62201;49.966;8.342;2023-03-21T02:37:21;18.03;;;9.67;;
61640;SDS011;62201;49.966;8.342;2023-03-21T02:45:24;25.53;;;10.00;;
61640;SDS011;62201;49.966;8.342;2023-03-21T02:47:55;14.27;;;8.60;;
61640;SDS011;62201;49.966;8.342;2023-03-21T02:50:25;18.27;;;9.37;;
61640;SDS011;62201;49.966;8.342;2023-03-21T02:52:56;20.38;;;9.45;;
61640;SDS011;62201;49.966;8.342;2023-03-21T02:55:25;13.80;;;9.27;;
61640;SDS011;62201;49.966;8.342;2023-03-21T02:57:52;16.57;;;9.80;;
61640;SDS011;62201;49.966;8.342;2023-03-21T03:00:20;18.10;;;9.53;;
61640;SDS011;62201;49.966;8.342;2023-03-21T03:02:49;16.57;;;9.23;;
61640;SDS011;62201;49.966;8.342;2023-03-21T03:05:18;14.40;;;8.43;;
61640;SDS011;62201;49.966;8.342;2023-03-21T03:07:55;18.23;;;9.80;;
61640;SDS011;62201;49.966;8.342;2023-03-21T03:13:13;14.90;;;9.00;;
61640;SDS011;62201;49.966;8.342;2023-03-21T03:18:32;20.67;;;9.43;;
61640;SDS011;62201;49.966;8.342;2023-03-21T03:26:42;19.67;;;9.57;;
61640;SDS011;62201;49.966;8.342;2023-03-21T03:29:13;19.43;;;9.93;;
61640;SDS011;62201;49.966;8.342;2023-03-21T03:31:42;15.43;;;8.50;;
61640;SDS011;62201;49.966;8.342;2023-03-21T03:34:21;17.73;;;9.40;;
61640;SDS011;62201;49.966;8.342;2023-03-21T03:36:58;15.33;;;9.33;;
61640;SDS011;62201;49.966;8.342;2023-03-21T03:39:29;18.23;;;9.37;;
61640;SDS011;62201;49.966;8.342;2023-03-21T03:42:00;17.53;;;9.47;;
61640;SDS011;62201;49.966;8.342;2023-03-21T03:44:31;18.67;;;9.63;;
61640;SDS011;62201;49.966;8.342;2023-03-21T03:47:00;18.53;;;9.50;;
61640;SDS011;62201;49.966;8.342;2023-03-21T03:52:52;15.43;;;8.30;;
61640;SDS011;62201;49.966;8.342;2023-03-21T03:55:23;15.97;;;8.83;;
61640;SDS011;62201;49.966;8.342;2023-03-21T03:57:51;22.17;;;10.03;;
61640;SDS011;62201;49.966;8.342;2023-03-21T04:00:17;16.50;;;8.07;;
61640;SDS011;62201;49.966;8.342;2023-03-21T04:02:42;15.83;;;8.40;;
61640;SDS011;62201;49.966;8.342;2023-03-21T04:05:09;17.90;;;9.00;;
61640;SDS011;62201;49.966;8.342;2023-03-21T04:07:36;17.37;;;9.23;;
61640;SDS011;62201;49.966;8.342;2023-03-21T04:10:01;16.53;;;9.80;;
61640;SDS011;62201;49.966;8.342;2023-03-21T04:12:27;14.37;;;8.07;;
61640;SDS011;62201;49.966;8.342;2023-03-21T04:14:53;16.03;;;8.60;;
61640;SDS011;62201;49.966;8.342;2023-03-21T04:17:18;15.23;;;7.87;;
61640;SDS011;62201;49.966;8.342;2023-03-21T04:19:44;16.07;;;7.50;;
61640;SDS011;62201;49.966;8.342;2023-03-21T04:22:10;12.30;;;6.90;;
61640;SDS011;62201;49.966;8.342;2023-03-21T04:24:36;14.37;;;7.77;;
61640;SDS011;62201;49.966;8.342;2023-03-21T04:27:06;12.83;;;7.20;;
61640;SDS011;62201;49.966;8.342;2023-03-21T04:29:32;12.80;;;6.80;;
61640;SDS011;62201;49.966;8.342;2023-03-21T04:31:57;15.83;;;6.73;;
61640;SDS011;62201;49.966;8.342;2023-03-21T04:34:23;13.23;;;7.47;;
61640;SDS011;62201;49.966;8.342;2023-03-21T04:36:52;15.90;;;7.93;;
61640;SDS011;62201;49.966;8.342;2023-03-21T04:39:18;13.67;;;7.70;;
61640;SDS011;62201;49.966;8.342;2023-03-21T04:41:46;11.60;;;7.00;;
61640;SDS011;62201;49.966;8.342;2023-03-21T04:44:12;11.37;;;7.27;;
61640;SDS011;62201;49.966;8.342;2023-03-21T04:46:39;15.23;;;7.07;;
61640;SDS011;62201;49.966;8.342;2023-03-21T04:49:05;14.70;;;7.50;;
61640;SDS011;62201;49.966;8.342;2023-03-21T04:51:31;10.93;;;6.67;;
61640;SDS011;62201;49.966;8.342;2023-03-21T04:53:57;15.30;;;6.80;;
61640;SDS011;62201;49.966;8.342;2023-03-21T04:56:23;17.53;;;7.93;;
61640;SDS011;62201;49.966;8.342;2023-03-21T04:58:55;11.47;;;7.43;;
61640;SDS011;62201;49.966;8.342;2023-03-21T05:01:22;14.13;;;7.07;;
61640;SDS011;62201;49.966;8.342;2023-03-21T05:03:47;11.50;;;7.53;;
61640;SDS011;62201;49.966;8.342;2023-03-21T05:06:12;12.33;;;7.33;;
61640;SDS011;62201;49.966;8.342;2023-03-21T05:08:38;12.50;;;7.43;;
61640;SDS011;62201;49.966;8.342;2023-03-21T05:11:03;12.63;;;7.97;;
61640;SDS011;62201;49.966;8.342;2023-03-21T05:13:29;11.70;;;6.77;;
61640;SDS011;62201;49.966;8.342;2023-03-21T05:15:55;13.07;;;7.20;;
61640;SDS011;62201;49.966;8.342;2023-03-21T05:18:20;13.10;;;6.90;;
61640;SDS011;62201;49.966;8.342;2023-03-21T05:20:50;11.97;;;7.10;;
61640;SDS011;62201;49.966;8.342;2023-03-21T05:23:22;13.87;;;7.27;;
61640;SDS011;62201;49.966;8.342;2023-03-21T05:25:49;10.80;;;7.30;;
61640;SDS011;62201;49.966;8.342;2023-03-21T05:28:15;12.60;;;7.30;;
61640;SDS011;62201;49.966;8.342;2023-03-21T05:30:44;11.23;;;6.93;;
61640;SDS011;62201;49.966;8.342;2023-03-21T05:33:10;26.43;;;7.40;;
61640;SDS011;62201;49.966;8.342;2023-03-21T05:35:36;12.73;;;6.90;;
61640;SDS011;62201;49.966;8.342;2023-03-21T05:38:02;11.30;;;6.97;;
61640;SDS011;62201;49.966;8.342;2023-03-21T05:40:27;14.60;;;7.07;;
61640;SDS011;62201;49.966;8.342;2023-03-21T05:42:53;17.23;;;7.67;;
61640;SDS011;62201;49.966;8.342;2023-03-21T05:45:18;13.13;;;7.07;;
61640;SDS011;62201;49.966;8.342;2023-03-21T05:47:43;9.83;;;7.10;;
61640;SDS011;62201;49.966;8.342;2023-03-21T05:50:09;12.20;;;7.03;;
61640;SDS011;62201;49.966;8.342;2023-03-21T05:52:35;10.57;;;7.27;;
61640;SDS011;62201;49.966;8.342;2023-03-21T05:55:01;10.70;;;6.30;;
61640;SDS011;62201;49.966;8.342;2023-03-21T05:57:27;13.63;;;7.07;;
61640;SDS011;62201;49.966;8.342;2023-03-21T05:59:53;11.53;;;6.83;;
61640;SDS011;62201;49.966;8.342;2023-03-21T06:02:18;15.23;;;6.95;;
61640;SDS011;62201;49.966;8.342;2023-03-21T06:04:44;10.88;;;6.18;;
61640;SDS011;62201;49.966;8.342;2023-03-21T06:07:09;13.07;;;6.93;;
61640;SDS011;62201;49.966;8.342;2023-03-21T06:09:35;12.73;;;6.60;;
61640;SDS011;62201;49.966;8.342;2023-03-21T06:12:00;17.77;;;7.03;;
61640;SDS011;62201;49.966;8.342;2023-03-21T06:14:26;13.70;;;7.25;;
61640;SDS011;62201;49.966;8.342;2023-03-21T06:16:51;14.60;;;7.47;;
61640;SDS011;62201;49.966;8.342;2023-03-21T06:19:18;10.85;;;6.57;;
61640;SDS011;62201;49.966;8.342;2023-03-21T06:21:45;13.35;;;6.50;;
61640;SDS011;62201;49.966;8.342;2023-03-21T06:24:10;14.43;;;7.05;;
61640;SDS011;62201;49.966;8.342;2023-03-21T06:26:36;12.98;;;6.88;;
61640;SDS011;62201;49.966;8.342;2023-03-21T06:29:01;11.90;;;6.43;;
61640;SDS011;62201;49.966;8.342;2023-03-21T06:31:26;13.43;;;7.18;;
61640;SDS011;62201;49.966;8.342;2023-03-21T06:33:52;12.73;;;6.72;;
61640;SDS011;62201;49.966;8.342;2023-03-21T06:36:17;10.00;;;6.28;;
61640;SDS011;62201;49.966;8.342;2023-03-21T06:38:43;13.15;;;6.50;;
61640;SDS011;62201;49.966;8.342;2023-03-21T06:41:11;12.43;;;6.00;;
61640;SDS011;62201;49.966;8.342;2023-03-21T06:43:36;9.13;;;5.15;;
61640;SDS011;62201;49.966;8.342;2023-03-21T06:46:02;12.40;;;5.80;;
61640;SDS011;62201;49.966;8.342;2023-03-21T06:48:29;10.32;;;5.70;;
61640;SDS011;62201;49.966;8.342;2023-03-21T06:50:55;10.73;;;5.93;;
61640;SDS011;62201;49.966;8.342;2023-03-21T06:53:21;15.30;;;6.65;;
61640;SDS011;62201;49.966;8.342;2023-03-21T06:55:53;10.07;;;5.95;;
61640;SDS011;62201;49.966;8.342;2023-03-21T06:58:19;12.70;;;5.90;;
61640;SDS011;62201;49.966;8.342;2023-03-21T07:00:45;11.45;;;6.00;;
61640;SDS011;62201;49.966;8.342;2023-03-21T07:03:11;14.82;;;6.47;;
61640;SDS011;62201;49.966;8.342;2023-03-21T07:05:37;11.45;;;5.95;;
61640;SDS011;62201;49.966;8.342;2023-03-21T07:08:04;13.63;;;5.72;;
61640;SDS011;62201;49.966;8.342;2023-03-21T07:10:31;13.55;;;5.53;;
61640;SDS011;62201;49.966;8.342;2023-03-21T07:12:57;12.45;;;5.90;;
61640;SDS011;62201;49.966;8.342;2023-03-21T07:15:23;15.07;;;5.70;;
61640;SDS011;62201;49.966;8.342;2023-03-21T07:17:50;16.02;;;6.35;;
61640;SDS011;62201;49.966;8.342;2023-03-21T07:20:15;18.80;;;5.85;;
61640;SDS011;62201;49.966;8.342;2023-03-21T07:22:41;17.55;;;5.20;;
61640;SDS011;62201;49.966;8.342;2023-03-21T07:25:06;17.85;;;5.65;;
61640;SDS011;62201;49.966;8.342;2023-03-21T07:27:32;14.70;;;5.38;;
61640;SDS011;62201;49.966;8.342;2023-03-21T07:29:58;16.88;;;5.60;;
61640;SDS011;62201;49.966;8.342;2023-03-21T07:32:23;15.38;;;5.05;;
61640;SDS011;62201;49.966;8.342;2023-03-21T07:34:53;26.73;;;6.40;;
61640;SDS011;62201;49.966;8.342;2023-03-21T07:37:19;18.92;;;5.60;;
61640;SDS011;62201;49.966;8.342;2023-03-21T07:39:45;19.80;;;5.57;;
61640;SDS011;62201;49.966;8.342;2023-03-21T07:42:11;16.95;;;5.50;;
61640;SDS011;62201;49.966;8.342;2023-03-21T07:44:36;17.05;;;5.53;;
61640;SDS011;62201;49.966;8.342;2023-03-21T07:47:02;18.48;;;6.35;;
61640;SDS011;62201;49.966;8.342;2023-03-21T07:49:27;16.08;;;5.57;;
61640;SDS011;62201;49.966;8.342;2023-03-21T07:51:53;15.52;;;5.40;;
61640;SDS011;62201;49.966;8.342;2023-03-21T07:54:18;18.10;;;5.25;;
61640;SDS011;62201;49.966;8.342;2023-03-21T07:56:46;17.27;;;5.50;;
61640;SDS011;62201;49.966;8.342;2023-03-21T07:59:12;10.85;;;5.03;;
61640;SDS011;62201;49.966;8.342;2023-03-21T08:01:37;11.40;;;5.30;;
61640;SDS011;62201;49.966;8.342;2023-03-21T08:04:02;13.35;;;4.75;;
61640;SDS011;62201;49.966;8.342;2023-03-21T08:06:28;14.27;;;5.25;;
61640;SDS011;62201;49.966;8.342;2023-03-21T08:08:56;9.35;;;4.82;;
61640;SDS011;62201;49.966;8.342;2023-03-21T08:11:24;10.63;;;4.65;;
61640;SDS011;62201;49.966;8.342;2023-03-21T08:13:49;10.30;;;5.10;;
61640;SDS011;62201;49.966;8.342;2023-03-21T08:16:15;9.48;;;4.97;;
61640;SDS011;62201;49.966;8.342;2023-03-21T08:18:41;8.68;;;4.95;;
61640;SDS011;62201;49.966;8.342;2023-03-21T08:21:06;8.32;;;4.82;;
61640;SDS011;62201;49.966;8.342;2023-03-21T08:23:32;12.52;;;4.88;;
61640;SDS011;62201;49.966;8.342;2023-03-21T08:25:58;13.07;;;5.03;;
61640;SDS011;62201;49.966;8.342;2023-03-21T08:28:23;8.88;;;4.47;;
61640;SDS011;62201;49.966;8.342;2023-03-21T08:30:49;10.45;;;4.75;;
61640;SDS011;62201;49.966;8.342;2023-03-21T08:33:14;10.43;;;4.75;;
61640;SDS011;62201;49.966;8.342;2023-03-21T08:35:41;11.05;;;4.80;;
61640;SDS011;62201;49.966;8.342;2023-03-21T08:38:06;9.68;;;4.32;;
61640;SDS011;62201;49.966;8.342;2023-03-21T08:40:32;10.50;;;5.03;;
61640;SDS011;62201;49.966;8.342;2023-03-21T08:42:58;8.95;;;4.47;;
61640;SDS011;62201;49.966;8.342;2023-03-21T08:45:24;10.35;;;4.55;;
61640;SDS011;62201;49.966;8.342;2023-03-21T08:47:51;9.68;;;4.65;;
61640;SDS011;62201;49.966;8.342;2023-03-21T08:50:17;10.13;;;4.72;;
61640;SDS011;62201;49.966;8.342;2023-03-21T08:52:44;10.00;;;4.80;;
61640;SDS011;62201;49.966;8.342;2023-03-21T08:55:10;7.90;;;4.43;;
61640;SDS011;62201;49.966;8.342;2023-03-21T08:57:37;11.68;;;4.40;;
61640;SDS011;62201;49.966;8.342;2023-03-21T09:00:04;7.97;;;3.80;;
61640;SDS011;62201;49.966;8.342;2023-03-21T09:02:36;9.43;;;4.50;;
61640;SDS011;62201;49.966;8.342;2023-03-21T09:05:01;9.55;;;4.60;;
61640;SDS011;62201;49.966;8.342;2023-03-21T09:07:29;12.25;;;4.70;;
61640;SDS011;62201;49.966;8.342;2023-03-21T09:09:57;12.18;;;4.88;;
61640;SDS011;62201;49.966;8.342;2023-03-21T09:12:24;11.85;;;4.60;;
61640;SDS011;62201;49.966;8.342;2023-03-21T09:14:49;11.20;;;4.72;;
61640;SDS011;62201;49.966;8.342;2023-03-21T09:17:17;11.00;;;4.88;;
61640;SDS011;62201;49.966;8.342;2023-03-21T09:19:42;10.45;;;4.68;;
61640;SDS011;62201;49.966;8.342;2023-03-21T09:22:08;10.15;;;4.97;;
61640;SDS011;62201;49.966;8.342;2023-03-21T09:24:39;11.40;;;4.30;;
61640;SDS011;62201;49.966;8.342;2023-03-21T09:27:06;9.82;;;4.13;;
61640;SDS011;62201;49.966;8.342;2023-03-21T09:29:31;10.50;;;4.47;;
61640;SDS011;62201;49.966;8.342;2023-03-21T09:31:57;10.45;;;4.63;;
61640;SDS011;62201;49.966;8.342;2023-03-21T09:34:23;9.68;;;4.28;;
61640;SDS011;62201;49.966;8.342;2023-03-21T09:36:50;11.68;;;4.60;;
61640;SDS011;62201;49.966;8.342;2023-03-21T09:39:18;9.07;;;3.83;;
61640;SDS011;62201;49.966;8.342;2023-03-21T09:47:29;9.90;;;4.50;;
61640;SDS011;62201;49.966;8.342;2023-03-21T09:50:00;9.43;;;4.07;;
61640;SDS011;62201;49.966;8.342;2023-03-21T09:55:03;9.35;;;3.90;;
61640;SDS011;62201;49.966;8.342;2023-03-21T09:57:43;11.07;;;3.92;;
61640;SDS011;62201;49.966;8.342;2023-03-21T10:00:14;11.90;;;4.13;;
61640;SDS011;62201;49.966;8.342;2023-03-21T10:02:49;8.30;;;3.85;;
61640;SDS011;62201;49.966;8.342;2023-03-21T10:10:29;11.57;;;3.75;;
61640;SDS011;62201;49.966;8.342;2023-03-21T10:12:58;7.78;;;3.33;;
61640;SDS011;62201;49.966;8.342;2023-03-21T10:15:24;11.32;;;3.70;;
61640;SDS011;62201;49.966;8.342;2023-03-21T10:17:59;12.18;;;4.10;;
61640;SDS011;62201;49.966;8.342;2023-03-21T10:20:36;9.15;;;4.43;;
61640;SDS011;62201;49.966;8.342;2023-03-21T10:23:06;10.27;;;4.10;;
61640;SDS011;62201;49.966;8.342;2023-03-21T10:25:38;11.00;;;4.00;;
61640;SDS011;62201;49.966;8.342;2023-03-21T10:28:06;11.20;;;4.55;;
61640;SDS011;62201;49.966;8.342;2023-03-21T10:30:39;10.85;;;3.97;;
61640;SDS011;62201;49.966;8.342;2023-03-21T10:33:16;10.75;;;4.60;;
61640;SDS011;62201;49.966;8.342;2023-03-21T10:35:45;12.73;;;4.75;;
61640;SDS011;62201;49.966;8.342;2023-03-21T10:38:16;9.35;;;4.60;;
61640;SDS011;62201;49.966;8.342;2023-03-21T10:40:43;13.23;;;4.70;;
61640;SDS011;62201;49.966;8.342;2023-03-21T10:43:17;13.57;;;4.53;;
61640;SDS011;62201;49.966;8.342;2023-03-21T10:45:52;13.10;;;4.70;;
61640;SDS011;62201;49.966;8.342;2023-03-21T10:48:18;9.68;;;4.47;;
61640;SDS011;62201;49.966;8.342;2023-03-21T10:50:45;13.65;;;4.82;;
61640;SDS011;62201;49.966;8.342;2023-03-21T10:53:14;12.35;;;5.05;;
61640;SDS011;62201;49.966;8.342;2023-03-21T10:55:44;9.80;;;5.03;;
61640;SDS011;62201;49.966;8.342;2023-03-21T10:58:16;12.35;;;4.60;;
61640;SDS011;62201;49.966;8.342;2023-03-21T11:00:55;12.63;;;4.75;;
61640;SDS011;62201;49.966;8.342;2023-03-21T11:03:23;11.13;;;4.72;;
61640;SDS011;62201;49.966;8.342;2023-03-21T11:05:55;13.52;;;5.07;;
61640;SDS011;62201;49.966;8.342;2023-03-21T11:08:24;12.57;;;4.80;;
61640;SDS011;62201;49.966;8.342;2023-03-21T11:10:53;8.80;;;4.68;;
61640;SDS011;62201;49.966;8.342;2023-03-21T11:13:26;13.02;;;5.20;;
61640;SDS011;62201;49.966;8.342;2023-03-21T11:16:02;9.20;;;4.55;;
61640;SDS011;62201;49.966;8.342;2023-03-21T11:18:29;10.38;;;4.80;;
61640;SDS011;62201;49.966;8.342;2023-03-21T11:20:57;11.20;;;5.22;;
61640;SDS011;62201;49.966;8.342;2023-03-21T11:23:28;14.35;;;5.32;;
61640;SDS011;62201;49.966;8.342;2023-03-21T11:25:55;10.43;;;4.70;;
61640;SDS011;62201;49.966;8.342;2023-03-21T11:28:25;9.85;;;5.18;;
61640;SDS011;62201;49.966;8.342;2023-03-21T11:30:59;10.75;;;5.00;;
61640;SDS011;62201;49.966;8.342;2023-03-21T11:33:27;11.30;;;5.22;;
61640;SDS011;62201;49.966;8.342;2023-03-21T11:36:07;10.23;;;4.95;;
61640;SDS011;62201;49.966;8.342;2023-03-21T11:38:42;13.23;;;5.80;;
61640;SDS011;62201;49.966;8.342;2023-03-21T11:41:08;14.63;;;5.18;;
61640;SDS011;62201;49.966;8.342;2023-03-21T11:43:50;11.50;;;5.30;;
61640;SDS011;62201;49.966;8.342;2023-03-21T11:46:21;14.85;;;5.47;;
61640;SDS011;62201;49.966;8.342;2023-03-21T11:48:47;10.55;;;5.10;;
61640;SDS011;62201;49.966;8.342;2023-03-21T11:51:18;10.77;;;5.13;;
61640;SDS011;62201;49.966;8.342;2023-03-21T11:56:43;11.82;;;6.13;;
61640;SDS011;62201;49.966;8.342;2023-03-21T11:59:19;11.52;;;5.60;;
61640;SDS011;62201;49.966;8.342;2023-03-21T12:05:18;9.70;;;4.88;;
61640;SDS011;62201;49.966;8.342;2023-03-21T12:08:17;11.57;;;4.75;;
61640;SDS011;62201;49.966;8.342;2023-03-21T12:19:11;5.55;;;3.40;;
61640;SDS011;62201;49.966;8.342;2023-03-21T12:24:11;11.05;;;3.33;;
61640;SDS011;62201;49.966;8.342;2023-03-21T12:32:03;7.05;;;3.17;;
61640;SDS011;62201;49.966;8.342;2023-03-21T12:34:37;7.35;;;3.47;;
61640;SDS011;62201;49.966;8.342;2023-03-21T12:37:36;6.90;;;3.05;;
61640;SDS011;62201;49.966;8.342;2023-03-21T12:43:01;8.80;;;3.38;;
61640;SDS011;62201;49.966;8.342;2023-03-21T12:45:45;9.02;;;4.15;;
61640;SDS011;62201;49.966;8.342;2023-03-21T12:48:16;7.97;;;3.50;;
61640;SDS011;62201;49.966;8.342;2023-03-21T12:50:54;8.35;;;3.92;;
61640;SDS011;62201;49.966;8.342;2023-03-21T12:56:06;8.82;;;3.60;;
61640;SDS011;62201;49.966;8.342;2023-03-21T12:58:40;7.75;;;3.40;;
61640;SDS011;62201;49.966;8.342;2023-03-21T13:01:11;6.22;;;3.15;;
61640;SDS011;62201;49.966;8.342;2023-03-21T13:03:47;8.70;;;3.33;;
61640;SDS011;62201;49.966;8.342;2023-03-21T13:06:21;6.90;;;3.63;;
61640;SDS011;62201;49.966;8.342;2023-03-21T13:11:50;10.32;;;3.85;;
61640;SDS011;62201;49.966;8.342;2023-03-21T13:14:22;7.32;;;3.50;;
61640;SDS011;62201;49.966;8.342;2023-03-21T13:16:59;8.32;;;3.63;;
61640;SDS011;62201;49.966;8.342;2023-03-21T13:19:40;8.70;;;3.70;;
61640;SDS011;62201;49.966;8.342;2023-03-21T13:22:20;7.50;;;3.85;;
61640;SDS011;62201;49.966;8.342;2023-03-21T13:24:56;10.68;;;4.00;;
61640;SDS011;62201;49.966;8.342;2023-03-21T13:29:52;8.43;;;4.13;;
61640;SDS011;62201;49.966;8.342;2023-03-21T13:34:57;7.93;;;4.72;;
61640;SDS011;62201;49.966;8.342;2023-03-21T13:37:30;12.07;;;4.38;;
61640;SDS011;62201;49.966;8.342;2023-03-21T13:40:05;10.07;;;4.22;;
61640;SDS011;62201;49.966;8.342;2023-03-21T13:42:44;10.15;;;5.28;;
61640;SDS011;62201;49.966;8.342;2023-03-21T13:45:21;9.68;;;4.65;;
61640;SDS011;62201;49.966;8.342;2023-03-21T13:48:11;9.88;;;4.22;;
61640;SDS011;62201;49.966;8.342;2023-03-21T13:50:52;9.00;;;4.80;;
61640;SDS011;62201;49.966;8.342;2023-03-21T14:09:18;9.23;;;5.30;;
61640;SDS011;62201;49.966;8.342;2023-03-21T14:11:49;11.23;;;5.18;;
61640;SDS011;62201;49.966;8.342;2023-03-21T14:14:16;12.07;;;6.13;;
61640;SDS011;62201;49.966;8.342;2023-03-21T14:16:43;11.05;;;5.90;;
61640;SDS011;62201;49.966;8.342;2023-03-21T14:19:09;16.38;;;6.43;;
61640;SDS011;62201;49.966;8.342;2023-03-21T14:21:35;9.70;;;5.20;;
61640;SDS011;62201;49.966;8.342;2023-03-21T14:24:05;9.15;;;5.72;;
61640;SDS011;62201;49.966;8.342;2023-03-21T14:26:33;9.85;;;5.00;;
61640;SDS011;62201;49.966;8.342;2023-03-21T14:29:03;10.02;;;6.80;;
61640;SDS011;62201;49.966;8.342;2023-03-21T14:31:31;13.07;;;7.85;;
61640;SDS011;62201;49.966;8.342;2023-03-21T14:33:57;14.55;;;6.93;;
61640;SDS011;62201;49.966;8.342;2023-03-21T14:36:26;13.63;;;6.47;;
61640;SDS011;62201;49.966;8.342;2023-03-21T14:38:55;12.30;;;6.93;;
61640;SDS011;62201;49.966;8.342;2023-03-21T14:41:32;10.60;;;6.38;;
61640;SDS011;62201;49.966;8.342;2023-03-21T14:46:38;14.52;;;6.30;;
61640;SDS011;62201;49.966;8.342;2023-03-21T14:51:46;11.00;;;6.60;;
61640;SDS011;62201;49.966;8.342;2023-03-21T14:54:15;14.77;;;6.22;;
61640;SDS011;62201;49.966;8.342;2023-03-21T14:56:49;12.80;;;5.57;;
61640;SDS011;62201;49.966;8.342;2023-03-21T14:59:19;10.75;;;5.93;;
61640;SDS011;62201;49.966;8.342;2023-03-21T15:01:47;13.43;;;6.25;;
61640;SDS011;62201;49.966;8.342;2023-03-21T15:04:15;14.90;;;5.97;;
61640;SDS011;62201;49.966;8.342;2023-03-21T15:06:52;12.30;;;6.25;;
61640;SDS011;62201;49.966;8.342;2023-03-21T15:09:22;8.90;;;5.90;;
61640;SDS011;62201;49.966;8.342;2023-03-21T15:11:51;10.77;;;6.53;;
61640;SDS011;62201;49.966;8.342;2023-03-21T15:14:23;14.13;;;6.00;;
61640;SDS011;62201;49.966;8.342;2023-03-21T15:16:59;10.40;;;5.63;;
61640;SDS011;62201;49.966;8.342;2023-03-21T15:19:32;9.68;;;6.22;;
61640;SDS011;62201;49.966;8.342;2023-03-21T15:22:05;14.30;;;6.63;;
61640;SDS011;62201;49.966;8.342;2023-03-21T15:24:47;15.93;;;6.55;;
61640;SDS011;62201;49.966;8.342;2023-03-21T15:27:17;13.73;;;6.60;;
61640;SDS011;62201;49.966;8.342;2023-03-21T15:29:44;10.93;;;6.07;;
61640;SDS011;62201;49.966;8.342;2023-03-21T15:32:13;11.57;;;6.10;;
61640;SDS011;62201;49.966;8.342;2023-03-21T15:34:44;14.10;;;6.90;;
61640;SDS011;62201;49.966;8.342;2023-03-21T15:37:17;12.15;;;6.47;;
61640;SDS011;62201;49.966;8.342;2023-03-21T15:39:47;12.88;;;6.45;;
61640;SDS011;62201;49.966;8.342;2023-03-21T15:44:51;14.25;;;7.57;;
61640;SDS011;62201;49.966;8.342;2023-03-21T15:50:09;11.80;;;6.38;;
61640;SDS011;62201;49.966;8.342;2023-03-21T15:52:49;12.63;;;6.63;;
61640;SDS011;62201;49.966;8.342;2023-03-21T15:55:23;13.55;;;6.30;;
61640;SDS011;62201;49.966;8.342;2023-03-21T15:57:53;11.88;;;6.80;;
61640;SDS011;62201;49.966;8.342;2023-03-21T16:00:26;10.70;;;6.75;;
61640;SDS011;62201;49.966;8.342;2023-03-21T16:03:06;12.50;;;6.30;;
61640;SDS011;62201;49.966;8.342;2023-03-21T16:05:40;9.75;;;5.80;;
61640;SDS011;62201;49.966;8.342;2023-03-21T16:08:25;13.50;;;6.45;;
61640;SDS011;62201;49.966;8.342;2023-03-21T16:10:51;13.45;;;6.40;;
61640;SDS011;62201;49.966;8.342;2023-03-21T16:13:17;13.32;;;6.50;;
61640;SDS011;62201;49.966;8.342;2023-03-21T16:15:43;14.18;;;7.65;;
61640;SDS011;62201;49.966;8.342;2023-03-21T16:18:11;15.80;;;8.02;;
61640;SDS011;62201;49.966;8.342;2023-03-21T16:20:39;12.02;;;6.38;;
61640;SDS011;62201;49.966;8.342;2023-03-21T16:23:08;14.77;;;6.78;;
61640;SDS011;62201;49.966;8.342;2023-03-21T16:25:36;10.55;;;6.38;;
61640;SDS011;62201;49.966;8.342;2023-03-21T16:28:01;13.43;;;6.25;;
61640;SDS011;62201;49.966;8.342;2023-03-21T16:30:27;13.27;;;7.05;;
61640;SDS011;62201;49.966;8.342;2023-03-21T16:32:53;15.70;;;6.47;;
61640;SDS011;62201;49.966;8.342;2023-03-21T16:35:20;9.77;;;6.47;;
61640;SDS011;62201;49.966;8.342;2023-03-21T16:37:45;14.20;;;7.47;;
61640;SDS011;62201;49.966;8.342;2023-03-21T16:42:46;11.30;;;7.35;;